Time;durP1;ratioP1;P1;durP2;ratioP2;P2;SDS_P1;SDS_P2;PMS_P1;PMS_P2;Temp;Humidity;BMP_temperature;BMP_pressure;BME280_temperature;BME280_humidity;BME280_pressure;Samples;Min_cycle;Max_cycle;Signal;HPM_P1;HPM_P2
2022/03/24 00:00:28;;;;;;;16.75;9.55;;;;;;;10.38;39.30;98299.34;4941723;28;20333;-77
2022/03/24 00:02:53;;;;;;;17.63;9.13;;;;;;;10.35;38.67;98304.19;4956046;28;20207;-77
2022/03/24 00:05:19;;;;;;;18.90;9.23;;;;;;;10.41;37.93;98303.34;4928279;28;20260;-77
2022/03/24 00:07:44;;;;;;;17.20;8.10;;;;;;;10.46;37.21;98295.69;4948555;28;20130;-77
2022/03/24 00:10:10;;;;;;;17.13;8.77;;;;;;;10.54;37.50;98299.81;4947386;28;20177;-77
2022/03/24 00:12:36;;;;;;;16.95;9.15;;;;;;;10.62;36.93;98295.09;4940977;28;20266;-77
2022/03/24 00:15:03;;;;;;;15.70;8.77;;;;;;;10.62;36.61;98299.53;4946067;28;20292;-77
2022/03/24 00:17:30;;;;;;;15.48;9.48;;;;;;;10.73;36.46;98300.59;4945024;28;20287;-80
2022/03/24 00:19:56;;;;;;;17.10;8.82;;;;;;;10.68;37.23;98302.06;4931357;28;20621;-77
2022/03/24 00:22:21;;;;;;;14.40;8.43;;;;;;;10.59;37.03;98298.16;4947377;28;20203;-77
2022/03/24 00:24:46;;;;;;;15.70;8.95;;;;;;;10.63;36.56;98301.91;4944443;28;20282;-77
2022/03/24 00:27:24;;;;;;;16.13;8.70;;;;;;;10.70;36.76;98295.84;4942916;28;20191;-77
2022/03/24 00:29:50;;;;;;;14.88;8.30;;;;;;;10.74;36.37;98295.19;4937534;28;20216;-77
2022/03/24 00:32:15;;;;;;;13.70;8.73;;;;;;;10.83;36.09;98288.69;4924228;28;20287;-77
2022/03/24 00:34:40;;;;;;;14.15;9.13;;;;;;;10.87;35.95;98286.44;4912526;28;20200;-77
2022/03/24 00:37:06;;;;;;;13.48;8.30;;;;;;;10.96;35.37;98295.53;4949018;28;20293;-77
2022/03/24 00:39:34;;;;;;;14.13;8.15;;;;;;;10.99;35.28;98295.09;4931143;28;20634;-77
2022/03/24 00:42:09;;;;;;;13.40;8.25;;;;;;;10.95;35.20;98286.13;4941245;28;20200;-77
2022/03/24 00:44:35;;;;;;;;;;;;;;;10.80;35.56;98285.72;4947300;28;20697;-77
2022/03/24 00:47:02;;;;;;;17.05;8.63;;;;;;;11.18;35.23;98288.06;4940737;28;20087;-77
2022/03/24 00:49:27;;;;;;;14.00;7.90;;;;;;;11.21;34.81;98279.78;4946605;28;20331;-77
2022/03/24 00:51:52;;;;;;;12.90;7.93;;;;;;;11.22;34.62;98278.78;4944460;28;20209;-77
2022/03/24 00:54:18;;;;;;;13.98;8.52;;;;;;;11.18;34.75;98282.03;4940514;28;20199;-77
2022/03/24 00:56:45;;;;;;;18.88;9.43;;;;;;;11.12;35.99;98285.53;4947742;28;20272;-77
2022/03/24 00:59:11;;;;;;;14.00;8.05;;;;;;;11.03;35.95;98274.59;4929268;28;20299;-77
2022/03/24 01:01:39;;;;;;;13.68;8.82;;;;;;;10.96;36.48;98279.09;4946911;28;20125;-77
2022/03/24 01:04:06;;;;;;;15.77;8.93;;;;;;;10.92;36.78;98272.75;4927360;28;20283;-77
2022/03/24 01:06:32;;;;;;;14.18;7.88;;;;;;;10.85;36.46;98268.41;4960349;28;20862;-77
2022/03/24 01:08:58;;;;;;;13.85;8.35;;;;;;;10.79;37.39;98273.69;4945730;28;20176;-77
2022/03/24 01:11:23;;;;;;;14.98;8.60;;;;;;;10.71;37.59;98271.38;4963518;28;20658;-77
2022/03/24 01:13:49;;;;;;;12.98;7.72;;;;;;;10.61;37.97;98272.69;4946931;28;20275;-77
2022/03/24 01:16:15;;;;;;;12.70;8.20;;;;;;;10.55;37.73;98270.94;4948431;28;20456;-77
2022/03/24 01:18:40;;;;;;;12.80;8.38;;;;;;;10.50;37.43;98270.78;4926908;28;20260;-77
2022/03/24 01:21:07;;;;;;;15.95;8.60;;;;;;;10.43;37.18;98270.84;4931478;28;20295;-78
2022/03/24 01:23:33;;;;;;;16.88;9.18;;;;;;;10.29;39.00;98266.78;4945888;28;20618;-77
2022/03/24 01:26:00;;;;;;;15.35;8.65;;;;;;;10.18;39.63;98264.88;4937153;28;20296;-77
2022/03/24 01:28:27;;;;;;;14.95;9.23;;;;;;;10.15;39.28;98267.91;4946470;28;20262;-77
2022/03/24 01:30:53;;;;;;;15.40;8.80;;;;;;;10.09;39.23;98264.34;4961240;28;20184;-78
2022/03/24 01:33:18;;;;;;;15.48;9.23;;;;;;;10.06;38.80;98265.59;4959462;28;20270;-77
2022/03/24 01:35:44;;;;;;;15.95;9.60;;;;;;;10.03;38.93;98260.03;4924234;28;20212;-78
2022/03/24 01:38:09;;;;;;;14.07;8.38;;;;;;;10.00;38.88;98269.03;4946881;28;20488;-77
2022/03/24 01:40:35;;;;;;;14.73;9.02;;;;;;;9.91;39.06;98268.50;4932652;28;20255;-77
2022/03/24 01:43:00;;;;;;;12.93;8.15;;;;;;;9.88;38.93;98258.53;4941739;28;20208;-77
2022/03/24 01:45:26;;;;;;;15.68;8.50;;;;;;;9.86;38.68;98265.75;4926706;28;20720;-77
2022/03/24 01:47:52;;;;;;;15.68;9.13;;;;;;;9.84;38.81;98267.75;4938540;28;20196;-77
2022/03/24 01:50:18;;;;;;;13.95;8.32;;;;;;;9.81;38.73;98259.59;4932758;28;20224;-78
2022/03/24 01:52:44;;;;;;;16.60;9.35;;;;;;;9.77;39.08;98261.00;4945662;28;20533;-77
2022/03/24 01:55:11;;;;;;;13.27;8.23;;;;;;;9.69;39.33;98260.25;4945106;28;20208;-78
2022/03/24 01:57:36;;;;;;;16.48;9.02;;;;;;;9.63;39.96;98255.94;4946172;28;20691;-77
2022/03/24 02:00:04;;;;;;;14.27;8.40;;;;;;;9.62;39.28;98258.72;4937677;28;20271;-77
2022/03/24 02:02:30;;;;;;;16.05;9.15;;;;;;;9.63;39.56;98253.31;4944854;28;20302;-78
2022/03/24 02:04:55;;;;;;;14.07;9.00;;;;;;;9.57;40.12;98256.75;4945090;28;20157;-78
2022/03/24 02:07:20;;;;;;;17.90;8.85;;;;;;;9.52;39.74;98254.00;4960337;28;20264;-77
2022/03/24 02:09:46;;;;;;;17.30;9.75;;;;;;;9.57;38.59;98252.34;4926995;28;20214;-77
2022/03/24 02:12:13;;;;;;;16.80;9.85;;;;;;;9.56;39.57;98253.38;4944742;28;20169;-78
2022/03/24 02:14:40;;;;;;;15.35;9.13;;;;;;;9.55;39.44;98253.56;4946096;28;20297;-78
2022/03/24 02:17:06;;;;;;;17.58;9.68;;;;;;;9.50;39.90;98243.81;4957909;28;20267;-77
2022/03/24 02:19:33;;;;;;;18.90;10.65;;;;;;;9.50;39.19;98251.59;4945870;28;20398;-77
2022/03/24 02:22:16;;;;;;;18.40;9.82;;;;;;;9.38;39.22;98242.88;4929494;28;20286;-77
2022/03/24 02:24:42;;;;;;;16.42;9.77;;;;;;;9.50;39.57;98251.59;4929372;28;20195;-77
2022/03/24 02:27:10;;;;;;;13.90;9.32;;;;;;;9.55;39.73;98245.78;4946415;28;20219;-77
2022/03/24 02:29:36;;;;;;;16.95;9.10;;;;;;;9.55;40.24;98249.16;4944705;28;20230;-77
2022/03/24 02:32:05;;;;;;;16.58;8.85;;;;;;;9.51;41.57;98245.41;4939057;28;20212;-80
2022/03/24 02:34:49;;;;;;;19.48;10.07;;;;;;;9.46;40.78;98250.44;4945431;28;20284;-80
2022/03/24 02:37:19;;;;;;;16.40;9.85;;;;;;;9.36;40.44;98247.50;4931655;28;20338;-77
2022/03/24 02:39:50;;;;;;;15.40;9.38;;;;;;;9.27;39.98;98251.34;4944898;28;20167;-77
2022/03/24 02:42:18;;;;;;;14.90;8.80;;;;;;;9.30;40.12;98253.53;4938508;28;20243;-78
2022/03/24 02:44:55;;;;;;;18.60;9.85;;;;;;;9.11;40.72;98250.81;4945327;28;20680;-78
2022/03/24 02:47:21;;;;;;;15.77;9.15;;;;;;;9.30;40.23;98243.91;4945472;28;20610;-80
2022/03/24 02:49:49;;;;;;;18.67;9.40;;;;;;;9.21;40.84;98247.78;4961643;28;20262;-80
2022/03/24 02:52:15;;;;;;;18.05;10.05;;;;;;;9.24;40.86;98246.59;4945135;28;20644;-80
2022/03/24 02:54:41;;;;;;;17.35;10.40;;;;;;;9.21;41.13;98252.97;4944711;28;20266;-77
2022/03/24 02:57:07;;;;;;;16.45;9.02;;;;;;;9.14;41.20;98242.63;4944358;28;20765;-77
2022/03/24 02:59:33;;;;;;;17.05;9.45;;;;;;;9.10;41.61;98243.22;4945077;28;20605;-80
2022/03/24 03:02:01;;;;;;;16.38;9.48;;;;;;;9.05;41.74;98250.84;4946782;28;20103;-78
2022/03/24 03:04:27;;;;;;;17.77;9.15;;;;;;;9.07;41.21;98252.25;4938163;28;20286;-77
2022/03/24 03:06:54;;;;;;;17.45;9.30;;;;;;;9.02;41.02;98254.69;4927317;28;20638;-78
2022/03/24 03:09:21;;;;;;;15.70;8.68;;;;;;;9.00;40.84;98252.28;4944089;28;20275;-78
2022/03/24 03:11:47;;;;;;;17.13;9.85;;;;;;;8.93;41.68;98250.75;4957210;28;20328;-77
2022/03/24 03:14:14;;;;;;;18.27;11.20;;;;;;;8.94;41.49;98250.50;4934910;28;20319;-78
2022/03/24 03:16:41;;;;;;;17.30;9.63;;;;;;;8.90;41.62;98245.94;4942820;28;20380;-77
2022/03/24 03:19:08;;;;;;;19.02;9.05;;;;;;;8.90;41.55;98248.53;4928647;28;20196;-77
2022/03/24 03:21:36;;;;;;;16.58;9.95;;;;;;;8.78;41.69;98249.19;4942623;28;20201;-78
2022/03/24 03:24:02;;;;;;;18.90;10.23;;;;;;;8.80;41.70;98252.38;4944143;28;20246;-77
2022/03/24 03:26:28;;;;;;;16.73;9.48;;;;;;;8.80;42.48;98256.78;4944814;28;20351;-80
2022/03/24 03:28:54;;;;;;;17.42;9.40;;;;;;;8.71;42.00;98256.19;4941202;28;20196;-80
2022/03/24 03:31:20;;;;;;;18.77;10.50;;;;;;;8.67;42.45;98257.63;4946489;28;20207;-77
2022/03/24 03:33:45;;;;;;;14.88;9.93;;;;;;;8.68;41.61;98259.19;4938724;28;20702;-77
2022/03/24 03:36:11;;;;;;;17.48;10.63;;;;;;;8.64;41.57;98258.03;4944584;28;20259;-77
2022/03/24 03:38:36;;;;;;;17.23;9.80;;;;;;;8.60;42.37;98262.00;4945808;28;20297;-77
2022/03/24 03:41:02;;;;;;;17.65;9.55;;;;;;;8.56;41.94;98256.44;4945579;28;20253;-77
2022/03/24 03:43:28;;;;;;;17.05;9.32;;;;;;;8.57;41.66;98262.44;4940374;28;20278;-77
2022/03/24 03:45:53;;;;;;;18.58;10.35;;;;;;;8.55;42.21;98259.22;4909488;28;20128;-77
2022/03/24 03:48:19;;;;;;;16.75;9.27;;;;;;;8.53;42.40;98254.25;4929644;28;20350;-77
2022/03/24 03:50:44;;;;;;;19.73;9.75;;;;;;;8.59;42.33;98253.44;4941018;28;20203;-77
2022/03/24 03:53:10;;;;;;;16.35;9.23;;;;;;;8.71;41.52;98258.81;4911012;28;20178;-77
2022/03/24 03:55:37;;;;;;;21.08;10.77;;;;;;;8.76;41.55;98253.78;4923513;28;20184;-79
2022/03/24 03:58:05;;;;;;;21.63;10.48;;;;;;;8.74;42.42;98253.19;4927992;28;20211;-78
2022/03/24 04:03:16;;;;;;;23.08;11.15;;;;;;;8.74;43.70;98263.59;4944677;28;20479;-78
2022/03/24 04:05:43;;;;;;;20.23;11.63;;;;;;;8.68;43.27;98266.19;4924679;28;20626;-77
2022/03/24 04:08:10;;;;;;;19.50;10.82;;;;;;;8.61;43.01;98255.84;4923991;28;20267;-78
2022/03/24 04:10:37;;;;;;;19.35;10.85;;;;;;;8.63;42.90;98253.81;4931789;28;20653;-77
2022/03/24 04:13:03;;;;;;;21.27;10.90;;;;;;;8.59;43.87;98258.63;4937223;28;20344;-77
2022/03/24 04:15:28;;;;;;;16.33;9.45;;;;;;;8.59;44.10;98261.22;4927709;28;20206;-77
2022/03/24 04:17:54;;;;;;;20.63;10.27;;;;;;;8.57;43.75;98262.44;4940670;28;20228;-78
2022/03/24 04:20:22;;;;;;;16.95;9.82;;;;;;;8.19;45.10;98260.47;4939263;28;20632;-77
2022/03/24 04:22:52;;;;;;;23.92;11.88;;;;;;;8.07;45.25;98258.50;4959143;28;20204;-78
2022/03/24 04:25:18;;;;;;;17.85;9.90;;;;;;;8.34;44.79;98253.25;4944308;28;20287;-80
2022/03/24 04:27:44;;;;;;;19.92;10.90;;;;;;;8.46;44.82;98252.69;4928222;28;20270;-80
2022/03/24 04:30:12;;;;;;;17.73;9.85;;;;;;;8.45;44.67;98254.50;4941523;28;20471;-80
2022/03/24 04:32:40;;;;;;;17.40;9.25;;;;;;;8.48;44.87;98253.28;4940823;28;20142;-80
2022/03/24 04:35:07;;;;;;;19.83;9.77;;;;;;;8.44;44.49;98248.47;4943075;28;20180;-80
2022/03/24 04:37:32;;;;;;;18.70;9.88;;;;;;;8.47;44.51;98256.88;4944159;28;20203;-80
2022/03/24 04:39:58;;;;;;;17.00;8.82;;;;;;;8.47;44.37;98251.69;4945455;28;20177;-80
2022/03/24 04:42:23;;;;;;;19.33;10.20;;;;;;;8.49;45.15;98249.69;4922739;28;20254;-80
2022/03/24 04:44:48;;;;;;;17.92;10.13;;;;;;;8.48;45.01;98258.47;4912708;28;20248;-80
2022/03/24 04:47:15;;;;;;;19.80;10.18;;;;;;;8.44;44.36;98265.84;4922940;28;20716;-80
2022/03/24 04:49:41;;;;;;;18.63;9.85;;;;;;;8.42;44.22;98258.28;4944148;28;20267;-80
2022/03/24 04:52:07;;;;;;;17.73;8.95;;;;;;;8.38;44.08;98264.03;4943142;28;20195;-80
2022/03/24 04:54:33;;;;;;;18.55;10.30;;;;;;;8.40;44.29;98256.88;4943071;28;20708;-80
2022/03/24 04:56:58;;;;;;;19.92;9.88;;;;;;;8.41;44.12;98263.63;4949188;28;20195;-80
2022/03/24 04:59:23;;;;;;;20.38;10.05;;;;;;;8.42;44.84;98265.25;4949032;28;20199;-78
2022/03/24 05:01:49;;;;;;;18.50;9.88;;;;;;;8.35;45.93;98261.88;4945178;28;20258;-77
2022/03/24 05:04:15;;;;;;;19.35;10.18;;;;;;;8.28;46.26;98266.25;4933621;28;20717;-77
2022/03/24 05:06:41;;;;;;;19.70;10.10;;;;;;;8.20;45.10;98275.06;4946953;28;20290;-77
2022/03/24 05:09:07;;;;;;;17.63;9.88;;;;;;;8.16;45.23;98266.88;4936160;28;20548;-77
2022/03/24 05:11:32;;;;;;;19.50;9.60;;;;;;;8.13;44.74;98269.09;4947343;28;20724;-78
2022/03/24 05:13:57;;;;;;;24.45;12.45;;;;;;;8.03;45.25;98264.28;4930850;28;20204;-77
2022/03/24 05:16:23;;;;;;;21.08;11.25;;;;;;;7.98;46.14;98266.69;4961764;28;20204;-77
2022/03/24 05:18:48;;;;;;;23.08;10.60;;;;;;;7.95;45.92;98262.72;4946590;28;20274;-78
2022/03/24 05:21:13;;;;;;;18.52;10.35;;;;;;;7.89;45.37;98258.31;4941637;28;20305;-77
2022/03/24 05:23:39;;;;;;;17.80;10.20;;;;;;;7.87;45.84;98255.91;4946527;28;20314;-77
2022/03/24 05:26:04;;;;;;;17.95;10.20;;;;;;;7.92;45.90;98262.28;4946972;28;20196;-80
2022/03/24 05:28:30;;;;;;;18.13;9.88;;;;;;;7.94;46.17;98260.31;4948676;28;20495;-80
2022/03/24 05:30:55;;;;;;;20.98;10.73;;;;;;;7.94;46.11;98260.31;4928710;28;20595;-80
2022/03/24 05:33:20;;;;;;;19.25;9.60;;;;;;;7.94;46.49;98263.69;4945070;28;20079;-79
2022/03/24 05:35:46;;;;;;;21.73;11.35;;;;;;;7.87;45.78;98268.09;4927393;28;20579;-80
2022/03/24 05:38:11;;;;;;;21.30;11.38;;;;;;;7.88;46.73;98270.50;4953781;28;20175;-80
2022/03/24 05:40:36;;;;;;;18.13;10.45;;;;;;;7.82;45.70;98273.06;4944101;28;20744;-80
2022/03/24 05:43:02;;;;;;;24.08;11.43;;;;;;;7.82;46.85;98266.09;4943661;28;20209;-80
2022/03/24 05:45:28;;;;;;;25.13;12.70;;;;;;;7.86;46.67;98269.06;4941998;28;20334;-80
2022/03/24 05:47:53;;;;;;;23.38;13.02;;;;;;;7.86;46.56;98277.69;4947083;28;20360;-80
2022/03/24 05:50:19;;;;;;;24.95;12.57;;;;;;;7.86;47.99;98269.06;4946357;28;20731;-79
2022/03/24 05:52:45;;;;;;;19.90;10.55;;;;;;;7.94;47.20;98268.88;4945835;28;20204;-79
2022/03/24 05:55:11;;;;;;;20.00;10.77;;;;;;;8.02;47.13;98271.28;4963078;28;20289;-79
2022/03/24 05:57:36;;;;;;;20.48;10.63;;;;;;;8.08;46.88;98269.66;4940035;28;20670;-79
2022/03/24 06:00:06;;;;;;;18.58;10.00;;;;;;;8.20;46.50;98275.84;4946038;28;20630;-79
2022/03/24 06:02:32;;;;;;;18.10;9.95;;;;;;;8.32;46.43;98273.44;4945428;28;20161;-79
2022/03/24 06:04:58;;;;;;;17.40;9.82;;;;;;;8.42;46.03;98273.84;4944876;28;20648;-79
2022/03/24 06:07:24;;;;;;;16.88;9.57;;;;;;;8.56;46.41;98279.81;4943675;28;20366;-79
2022/03/24 06:09:50;;;;;;;20.95;10.75;;;;;;;8.67;47.10;98275.81;4945665;28;20334;-79
2022/03/24 06:12:15;;;;;;;19.95;10.30;;;;;;;8.74;46.49;98276.56;4945009;28;20315;-79
2022/03/24 06:14:41;;;;;;;20.40;10.32;;;;;;;8.86;45.37;98281.09;4926639;28;20258;-79
2022/03/24 06:17:07;;;;;;;18.00;10.52;;;;;;;8.91;44.33;98281.28;4935850;28;20191;-79
2022/03/24 06:19:35;;;;;;;22.42;11.18;;;;;;;9.02;44.88;98280.66;4945127;28;20209;-79
2022/03/24 06:22:01;;;;;;;21.63;11.82;;;;;;;9.05;44.98;98277.66;4941586;28;20416;-79
2022/03/24 06:24:27;;;;;;;22.02;10.63;;;;;;;9.23;44.97;98286.56;4941261;28;20240;-79
2022/03/24 06:26:52;;;;;;;18.45;10.77;;;;;;;9.41;44.06;98283.25;4945184;28;20318;-79
2022/03/24 06:29:19;;;;;;;20.90;11.25;;;;;;;9.61;43.90;98283.13;4928689;28;20540;-79
2022/03/24 06:31:45;;;;;;;18.83;10.57;;;;;;;9.81;43.06;98283.00;4923358;28;20711;-79
2022/03/24 06:34:10;;;;;;;20.42;10.35;;;;;;;9.98;43.38;98281.47;4945448;28;20268;-79
2022/03/24 06:36:37;;;;;;;21.80;10.95;;;;;;;10.08;42.55;98270.59;4947378;28;20286;-79
2022/03/24 06:39:02;;;;;;;22.73;10.60;;;;;;;10.23;41.68;98283.25;4945123;28;20211;-79
2022/03/24 06:41:28;;;;;;;19.95;11.10;;;;;;;10.41;41.04;98279.91;4945609;28;20184;-79
2022/03/24 06:43:57;;;;;;;17.13;10.27;;;;;;;10.67;41.65;98282.22;4945403;28;20649;-79
2022/03/24 06:46:23;;;;;;;19.38;10.85;;;;;;;10.88;42.13;98277.59;4929165;28;20369;-78
2022/03/24 06:48:48;;;;;;;16.27;10.10;;;;;;;11.06;42.38;98272.34;4945663;28;20316;-79
2022/03/24 06:51:14;;;;;;;20.25;9.95;;;;;;;11.29;42.86;98280.50;4939098;28;20323;-79
2022/03/24 06:53:39;;;;;;;18.40;9.95;;;;;;;11.46;40.85;98278.06;4944454;28;20213;-79
2022/03/24 06:56:05;;;;;;;21.35;10.73;;;;;;;11.70;39.88;98277.09;4938178;28;20307;-79
2022/03/24 06:58:30;;;;;;;23.05;11.38;;;;;;;11.96;39.06;98283.75;4945288;28;20290;-79
2022/03/24 07:00:56;;;;;;;20.85;10.27;;;;;;;12.16;38.21;98277.41;4938943;28;20253;-79
2022/03/24 07:03:21;;;;;;;20.17;10.02;;;;;;;12.25;38.23;98275.25;4931697;28;20634;-79
2022/03/24 07:05:46;;;;;;;23.17;10.30;;;;;;;12.33;38.34;98288.75;4945606;28;20199;-79
2022/03/24 07:08:12;;;;;;;19.25;10.95;;;;;;;12.43;38.23;98282.97;4928791;28;20210;-79
2022/03/24 07:10:37;;;;;;;21.65;10.80;;;;;;;12.55;37.62;98282.94;4926102;28;20358;-79
2022/03/24 07:13:05;;;;;;;20.10;11.52;;;;;;;12.74;37.12;98278.38;4931710;28;20291;-79
2022/03/24 07:15:31;;;;;;;22.02;11.38;;;;;;;12.89;36.39;98286.50;4945978;28;20130;-79
2022/03/24 07:17:56;;;;;;;21.63;10.85;;;;;;;13.00;36.08;98273.66;4945137;28;20191;-79
2022/03/24 07:20:23;;;;;;;19.38;11.43;;;;;;;13.16;36.36;98280.75;4939336;28;20303;-79
2022/03/24 07:22:48;;;;;;;17.90;10.43;;;;;;;13.58;36.05;98287.53;4948251;28;20566;-78
2022/03/24 07:25:14;;;;;;;16.90;10.15;;;;;;;13.86;35.93;98284.84;4909119;28;20196;-79
2022/03/24 07:27:40;;;;;;;20.98;11.30;;;;;;;14.06;35.23;98286.19;4944101;28;20270;-79
2022/03/24 07:30:06;;;;;;;19.90;11.65;;;;;;;14.34;35.65;98292.34;4945373;28;20213;-78
2022/03/24 07:32:32;;;;;;;19.38;11.80;;;;;;;14.53;35.54;98282.38;4926870;28;20193;-79
2022/03/24 07:34:58;;;;;;;20.85;12.68;;;;;;;14.79;35.01;98284.31;4928844;28;20290;-79
2022/03/24 07:37:23;;;;;;;20.83;11.38;;;;;;;14.95;34.57;98287.13;4932149;28;20730;-79
2022/03/24 07:39:49;;;;;;;18.27;11.30;;;;;;;15.01;34.01;98283.53;4958367;28;20199;-79
2022/03/24 07:42:15;;;;;;;22.17;11.85;;;;;;;15.25;34.03;98284.06;4940126;28;20165;-79
2022/03/24 07:44:40;;;;;;;20.00;11.88;;;;;;;15.47;34.08;98293.69;4941587;28;20283;-79
2022/03/24 07:47:06;;;;;;;22.58;12.05;;;;;;;15.62;33.33;98288.59;4944246;28;20282;-79
2022/03/24 07:49:32;;;;;;;23.05;12.95;;;;;;;15.79;33.57;98285.09;4911977;28;20279;-79
2022/03/24 07:51:58;;;;;;;18.83;11.48;;;;;;;16.14;33.61;98291.63;4943225;28;20717;-79
2022/03/24 07:54:41;;;;;;;19.13;11.57;;;;;;;16.07;33.58;98289.22;4961260;28;20698;-79
2022/03/24 07:57:07;;;;;;;22.50;11.95;;;;;;;16.29;32.60;98289.88;4946139;28;20212;-79
2022/03/24 07:59:33;;;;;;;21.17;11.77;;;;;;;16.27;32.34;98291.19;4931399;28;20157;-79
2022/03/24 08:01:59;;;;;;;23.45;12.00;;;;;;;16.51;31.76;98288.97;4919509;28;20282;-79
2022/03/24 08:04:24;;;;;;;19.65;11.00;;;;;;;16.54;31.35;98291.09;4935467;28;20246;-79
2022/03/24 08:06:49;;;;;;;21.20;12.55;;;;;;;16.54;30.48;98293.72;4938869;28;20289;-79
2022/03/24 08:09:15;;;;;;;22.70;12.38;;;;;;;16.70;30.90;98293.78;4911670;28;20183;-79
2022/03/24 08:11:41;;;;;;;20.50;12.18;;;;;;;16.77;30.81;98291.72;4941991;28;20344;-79
2022/03/24 08:14:06;;;;;;;26.48;15.38;;;;;;;16.80;30.38;98301.72;4920258;28;20697;-79
2022/03/24 08:16:31;;;;;;;27.20;15.43;;;;;;;17.08;29.68;98292.63;4941029;28;20262;-79
2022/03/24 08:18:57;;;;;;;24.77;15.43;;;;;;;17.29;29.33;98297.94;4943294;28;20181;-79
2022/03/24 08:21:22;;;;;;;25.42;13.40;;;;;;;17.42;29.18;98292.97;4939827;28;20192;-78
2022/03/24 08:23:48;;;;;;;24.13;12.13;;;;;;;17.74;28.84;98305.13;4941474;28;20211;-79
2022/03/24 08:26:14;;;;;;;22.75;11.95;;;;;;;18.06;28.79;98304.13;4939342;28;20637;-78
2022/03/24 08:28:39;;;;;;;19.80;11.95;;;;;;;18.13;28.20;98301.22;4943344;28;20308;-78
2022/03/24 08:31:04;;;;;;;19.98;12.82;;;;;;;18.20;28.43;98307.00;4943969;28;20255;-78
2022/03/24 08:33:30;;;;;;;21.50;12.95;;;;;;;18.15;27.99;98299.09;4946388;28;20203;-78
2022/03/24 08:35:55;;;;;;;21.23;12.68;;;;;;;18.42;27.54;98305.88;4946043;28;20574;-78
2022/03/24 08:38:21;;;;;;;23.02;14.02;;;;;;;18.61;27.17;98303.47;4955900;28;20189;-78
2022/03/24 08:40:47;;;;;;;20.40;12.15;;;;;;;18.75;27.14;98301.84;4946252;28;20265;-78
2022/03/24 08:43:13;;;;;;;19.67;11.98;;;;;;;19.05;27.27;98303.56;4945978;28;20152;-78
2022/03/24 08:45:38;;;;;;;20.52;12.45;;;;;;;18.95;26.79;98305.47;4944833;28;20164;-78
2022/03/24 08:48:06;;;;;;;21.08;12.75;;;;;;;19.16;26.05;98301.69;4940030;28;20246;-79
2022/03/24 08:50:31;;;;;;;24.05;13.77;;;;;;;19.01;26.55;98305.19;4942565;28;20282;-78
2022/03/24 08:52:57;;;;;;;19.80;11.48;;;;;;;18.74;26.75;98305.53;4929040;28;20272;-78
2022/03/24 08:55:23;;;;;;;20.48;12.43;;;;;;;19.03;26.70;98304.91;4948184;28;20237;-78
2022/03/24 08:57:48;;;;;;;21.60;12.63;;;;;;;19.25;26.05;98310.59;4944056;28;20298;-76
2022/03/24 09:00:16;;;;;;;23.33;12.68;;;;;;;19.33;25.75;98311.91;4925044;28;20165;-76
2022/03/24 09:02:48;;;;;;;21.63;13.35;;;;;;;19.44;25.63;98308.13;4937109;28;20653;-76
2022/03/24 09:05:16;;;;;;;18.38;12.18;;;;;;;19.75;25.88;98302.66;4941459;28;20248;-79
2022/03/24 09:07:42;;;;;;;21.92;12.80;;;;;;;19.73;25.63;98302.09;4936883;28;20278;-78
2022/03/24 09:10:10;;;;;;;20.85;12.68;;;;;;;19.70;25.20;98304.50;4944387;28;20224;-79
2022/03/24 09:12:37;;;;;;;22.40;14.45;;;;;;;19.86;24.91;98319.22;4950403;28;20294;-79
2022/03/24 09:15:07;;;;;;;20.10;13.38;;;;;;;20.21;24.28;98310.19;4926658;28;20196;-80
2022/03/24 09:17:34;;;;;;;18.20;12.90;;;;;;;20.42;24.30;98317.91;4928283;28;20193;-79
2022/03/24 09:20:00;;;;;;;19.75;12.88;;;;;;;20.40;24.30;98306.81;4946493;28;20342;-80
2022/03/24 09:22:26;;;;;;;23.23;13.73;;;;;;;20.55;24.22;98306.66;4948711;28;20191;-79
2022/03/24 09:24:51;;;;;;;19.17;12.65;;;;;;;20.63;24.45;98307.13;4949942;28;20172;-79
2022/03/24 09:27:17;;;;;;;22.15;13.27;;;;;;;20.80;23.80;98310.09;4950115;28;20574;-79
2022/03/24 09:29:43;;;;;;;20.63;13.10;;;;;;;20.85;23.57;98306.63;4946995;28;20299;-79
2022/03/24 09:32:12;;;;;;;18.42;12.63;;;;;;;21.02;23.69;98311.44;4941784;28;20252;-78
2022/03/24 09:34:39;;;;;;;21.33;12.90;;;;;;;21.02;23.39;98306.94;4932538;28;20618;-78
2022/03/24 09:37:04;;;;;;;19.40;12.40;;;;;;;21.08;23.46;98305.81;4946803;28;20250;-78
2022/03/24 09:39:29;;;;;;;21.50;13.98;;;;;;;21.34;23.34;98310.75;4945331;28;20207;-78
2022/03/24 09:41:55;;;;;;;19.90;12.65;;;;;;;21.32;23.22;98299.66;4936095;28;20161;-77
2022/03/24 09:44:21;;;;;;;21.00;12.93;;;;;;;21.33;22.88;98309.16;4945499;28;20258;-77
2022/03/24 09:46:46;;;;;;;22.63;12.90;;;;;;;20.62;23.34;98311.66;4945828;28;20352;-77
2022/03/24 09:49:11;;;;;;;20.45;13.18;;;;;;;21.56;22.91;98306.75;4948105;28;20641;-77
2022/03/24 09:51:42;;;;;;;20.35;12.50;;;;;;;21.42;22.41;98306.66;4946940;28;20661;-77
2022/03/24 09:54:08;;;;;;;18.33;11.98;;;;;;;21.33;22.54;98312.63;4929395;28;20343;-77
2022/03/24 09:56:34;;;;;;;16.73;11.98;;;;;;;21.88;23.06;98308.63;4945652;28;20265;-78
2022/03/24 09:58:59;;;;;;;20.20;11.82;;;;;;;21.97;21.80;98312.22;4947310;28;20203;-77
2022/03/24 10:01:25;;;;;;;18.80;12.52;;;;;;;21.88;21.71;98311.28;4941934;28;20634;-78
2022/03/24 10:04:03;;;;;;;18.27;11.38;;;;;;;22.05;21.55;98310.75;4912555;28;20290;-77
2022/03/24 10:06:29;;;;;;;17.92;11.90;;;;;;;22.27;21.36;98312.75;4943004;28;20259;-78
2022/03/24 10:08:54;;;;;;;18.33;12.32;;;;;;;21.88;21.90;98306.78;4946540;28;20295;-77
2022/03/24 10:11:20;;;;;;;17.95;11.10;;;;;;;22.32;23.01;98310.03;4945403;28;20207;-77
2022/03/24 10:13:49;;;;;;;18.85;12.25;;;;;;;22.29;22.00;98309.84;4914204;28;20596;-78
2022/03/24 10:16:33;;;;;;;18.25;11.45;;;;;;;21.65;22.05;98311.09;4929249;28;20177;-78
2022/03/24 10:19:06;;;;;;;18.90;11.10;;;;;;;22.00;21.97;98305.53;4962665;28;20285;-77
2022/03/24 10:21:35;;;;;;;18.00;11.60;;;;;;;22.40;22.89;98304.03;4924226;28;20209;-80
2022/03/24 10:24:16;;;;;;;17.17;11.10;;;;;;;22.12;21.35;98308.47;4929787;28;20277;-77
2022/03/24 10:26:45;;;;;;;16.13;10.52;;;;;;;22.62;21.46;98308.69;4944163;28;20746;-78
2022/03/24 10:29:13;;;;;;;19.38;11.90;;;;;;;22.40;21.41;98300.63;4947872;28;20283;-78
2022/03/24 10:31:39;;;;;;;16.55;10.95;;;;;;;22.24;20.98;98300.88;4921372;28;20269;-78
2022/03/24 10:34:06;;;;;;;16.75;10.95;;;;;;;22.35;21.54;98295.41;4945407;28;20715;-78
2022/03/24 10:36:32;;;;;;;17.05;10.75;;;;;;;22.73;21.08;98303.16;4927674;28;20244;-78
2022/03/24 10:39:04;;;;;;;18.63;11.35;;;;;;;23.06;20.60;98303.06;4946024;28;20638;-78
2022/03/24 10:41:34;;;;;;;20.80;12.73;;;;;;;22.56;20.76;98299.22;4942428;28;20245;-77
2022/03/24 10:44:08;;;;;;;17.92;10.73;;;;;;;22.96;20.32;98296.03;4947550;28;20184;-78
2022/03/24 10:46:36;;;;;;;18.45;12.02;;;;;;;22.08;21.02;98296.91;4946805;28;20587;-78
2022/03/24 10:49:18;;;;;;;18.70;11.30;;;;;;;22.41;21.67;98297.66;4932431;28;20219;-78
2022/03/24 10:51:45;;;;;;;17.90;11.73;;;;;;;23.13;20.88;98298.09;4954873;28;20201;-78
2022/03/24 10:54:49;;;;;;;18.33;12.57;;;;;;;22.93;20.42;98302.75;4947926;28;20716;-78
2022/03/24 10:57:16;;;;;;;17.83;11.23;;;;;;;22.50;20.80;98291.66;4928388;28;20188;-78
2022/03/24 10:59:44;;;;;;;20.27;12.90;;;;;;;22.69;20.65;98291.56;4928429;28;20608;-78
2022/03/24 11:02:10;;;;;;;21.10;12.10;;;;;;;23.43;21.56;98293.22;4945023;28;20279;-79
2022/03/24 11:04:36;;;;;;;17.55;11.88;;;;;;;23.59;21.25;98291.75;4948398;28;20391;-79
2022/03/24 11:07:01;;;;;;;15.65;10.38;;;;;;;23.81;20.03;98293.66;4944157;28;20181;-78
2022/03/24 11:09:29;;;;;;;18.52;11.85;;;;;;;24.49;18.08;98290.84;4936746;28;20330;-78
2022/03/24 11:12:24;;;;;;;15.80;11.18;;;;;;;24.47;18.66;98288.50;4945010;28;20371;-78
2022/03/24 11:14:51;;;;;;;16.17;11.80;;;;;;;24.79;17.84;98283.13;4938256;28;20184;-78
2022/03/24 11:17:17;;;;;;;20.40;13.27;;;;;;;24.07;19.06;98277.81;4934791;28;20224;-79
2022/03/24 11:19:50;;;;;;;18.15;12.88;;;;;;;23.69;19.33;98280.88;4933404;28;20201;-79
2022/03/24 11:22:15;;;;;;;17.23;11.90;;;;;;;23.71;19.18;98277.91;4939341;28;20716;-78
2022/03/24 11:24:41;;;;;;;14.25;10.93;;;;;;;24.63;19.15;98280.13;4936275;28;20194;-78